sensor_id;sensor_type;location;lat;lon;timestamp;P1;durP1;ratioP1;P2;durP2;ratioP2
15818;SDS011;8010;53.986;12.106;2023-05-24T00:00:50;10.43;;;2.00;;
15818;SDS011;8010;53.986;12.106;2023-05-24T00:03:17;8.70;;;2.60;;
15818;SDS011;8010;53.986;12.106;2023-05-24T00:05:42;7.73;;;2.60;;
15818;SDS011;8010;53.986;12.106;2023-05-24T00:08:10;7.67;;;2.23;;
15818;SDS011;8010;53.986;12.106;2023-05-24T00:10:36;10.77;;;2.27;;
15818;SDS011;8010;53.986;12.106;2023-05-24T00:13:01;7.43;;;2.50;;
15818;SDS011;8010;53.986;12.106;2023-05-24T00:15:27;11.63;;;2.70;;
15818;SDS011;8010;53.986;12.106;2023-05-24T00:17:52;9.30;;;2.03;;
15818;SDS011;8010;53.986;12.106;2023-05-24T00:20:18;8.23;;;2.20;;
15818;SDS011;8010;53.986;12.106;2023-05-24T00:22:44;11.50;;;2.30;;
15818;SDS011;8010;53.986;12.106;2023-05-24T00:25:10;6.97;;;1.83;;
15818;SDS011;8010;53.986;12.106;2023-05-24T00:27:35;8.43;;;2.27;;
15818;SDS011;8010;53.986;12.106;2023-05-24T00:30:01;11.73;;;2.73;;
15818;SDS011;8010;53.986;12.106;2023-05-24T00:32:28;11.00;;;2.83;;
15818;SDS011;8010;53.986;12.106;2023-05-24T00:34:53;7.93;;;2.20;;
15818;SDS011;8010;53.986;12.106;2023-05-24T00:37:19;9.70;;;2.30;;
15818;SDS011;8010;53.986;12.106;2023-05-24T00:39:44;7.67;;;2.20;;
15818;SDS011;8010;53.986;12.106;2023-05-24T00:42:10;9.23;;;2.37;;
15818;SDS011;8010;53.986;12.106;2023-05-24T00:44:35;8.50;;;2.03;;
15818;SDS011;8010;53.986;12.106;2023-05-24T00:47:01;13.73;;;2.50;;
15818;SDS011;8010;53.986;12.106;2023-05-24T00:49:26;13.10;;;2.60;;
15818;SDS011;8010;53.986;12.106;2023-05-24T00:51:52;11.67;;;2.40;;
15818;SDS011;8010;53.986;12.106;2023-05-24T00:54:18;14.73;;;2.80;;
15818;SDS011;8010;53.986;12.106;2023-05-24T00:56:44;12.97;;;2.90;;
15818;SDS011;8010;53.986;12.106;2023-05-24T00:59:12;10.87;;;2.53;;
15818;SDS011;8010;53.986;12.106;2023-05-24T01:01:37;14.03;;;2.80;;
15818;SDS011;8010;53.986;12.106;2023-05-24T01:04:05;10.13;;;2.83;;
15818;SDS011;8010;53.986;12.106;2023-05-24T01:06:31;11.17;;;2.53;;
15818;SDS011;8010;53.986;12.106;2023-05-24T01:09:12;12.93;;;2.67;;
15818;SDS011;8010;53.986;12.106;2023-05-24T01:14:37;12.37;;;2.90;;
15818;SDS011;8010;53.986;12.106;2023-05-24T01:17:22;11.80;;;3.00;;
15818;SDS011;8010;53.986;12.106;2023-05-24T01:19:57;11.70;;;2.43;;
15818;SDS011;8010;53.986;12.106;2023-05-24T01:22:53;11.20;;;2.80;;
15818;SDS011;8010;53.986;12.106;2023-05-24T01:28:32;11.07;;;2.43;;
15818;SDS011;8010;53.986;12.106;2023-05-24T01:30:59;12.23;;;2.93;;
15818;SDS011;8010;53.986;12.106;2023-05-24T01:33:25;12.57;;;2.87;;
15818;SDS011;8010;53.986;12.106;2023-05-24T01:35:51;14.20;;;3.50;;
15818;SDS011;8010;53.986;12.106;2023-05-24T01:38:17;13.70;;;3.07;;
15818;SDS011;8010;53.986;12.106;2023-05-24T01:40:43;13.70;;;3.20;;
15818;SDS011;8010;53.986;12.106;2023-05-24T01:43:13;9.73;;;3.03;;
15818;SDS011;8010;53.986;12.106;2023-05-24T01:49:01;10.70;;;3.50;;
15818;SDS011;8010;53.986;12.106;2023-05-24T01:51:58;14.93;;;3.33;;
15818;SDS011;8010;53.986;12.106;2023-05-24T01:54:27;10.40;;;3.37;;
15818;SDS011;8010;53.986;12.106;2023-05-24T01:56:57;7.03;;;2.50;;
15818;SDS011;8010;53.986;12.106;2023-05-24T01:59:23;13.60;;;2.60;;
15818;SDS011;8010;53.986;12.106;2023-05-24T02:01:52;9.03;;;3.17;;
15818;SDS011;8010;53.986;12.106;2023-05-24T02:04:18;12.23;;;2.70;;
15818;SDS011;8010;53.986;12.106;2023-05-24T02:06:44;14.87;;;3.07;;
15818;SDS011;8010;53.986;12.106;2023-05-24T02:09:09;13.67;;;2.90;;
15818;SDS011;8010;53.986;12.106;2023-05-24T02:11:35;14.53;;;3.70;;
15818;SDS011;8010;53.986;12.106;2023-05-24T02:14:00;17.73;;;3.33;;
15818;SDS011;8010;53.986;12.106;2023-05-24T02:16:26;9.87;;;3.03;;
15818;SDS011;8010;53.986;12.106;2023-05-24T02:18:54;15.10;;;3.20;;
15818;SDS011;8010;53.986;12.106;2023-05-24T02:21:20;16.03;;;3.37;;
15818;SDS011;8010;53.986;12.106;2023-05-24T02:23:47;26.10;;;3.30;;
15818;SDS011;8010;53.986;12.106;2023-05-24T02:26:13;14.03;;;3.27;;
15818;SDS011;8010;53.986;12.106;2023-05-24T02:28:38;10.73;;;2.67;;
15818;SDS011;8010;53.986;12.106;2023-05-24T02:31:04;9.80;;;2.90;;
15818;SDS011;8010;53.986;12.106;2023-05-24T02:33:30;13.03;;;3.13;;
15818;SDS011;8010;53.986;12.106;2023-05-24T02:35:55;18.33;;;4.03;;
15818;SDS011;8010;53.986;12.106;2023-05-24T02:38:21;14.53;;;3.40;;
15818;SDS011;8010;53.986;12.106;2023-05-24T02:40:47;13.63;;;2.97;;
15818;SDS011;8010;53.986;12.106;2023-05-24T02:43:12;15.87;;;3.30;;
15818;SDS011;8010;53.986;12.106;2023-05-24T02:45:38;10.17;;;3.10;;
15818;SDS011;8010;53.986;12.106;2023-05-24T02:48:04;15.97;;;3.10;;
15818;SDS011;8010;53.986;12.106;2023-05-24T02:50:29;13.33;;;4.10;;
15818;SDS011;8010;53.986;12.106;2023-05-24T02:52:55;17.23;;;4.90;;
15818;SDS011;8010;53.986;12.106;2023-05-24T02:55:20;12.67;;;4.77;;
15818;SDS011;8010;53.986;12.106;2023-05-24T02:57:46;18.00;;;5.20;;
15818;SDS011;8010;53.986;12.106;2023-05-24T03:00:12;10.50;;;4.70;;
15818;SDS011;8010;53.986;12.106;2023-05-24T03:02:38;16.90;;;5.03;;
15818;SDS011;8010;53.986;12.106;2023-05-24T03:05:05;13.50;;;4.87;;
15818;SDS011;8010;53.986;12.106;2023-05-24T03:07:31;23.80;;;5.40;;
15818;SDS011;8010;53.986;12.106;2023-05-24T03:09:57;18.87;;;5.50;;
15818;SDS011;8010;53.986;12.106;2023-05-24T03:12:22;19.60;;;5.00;;
15818;SDS011;8010;53.986;12.106;2023-05-24T03:14:48;20.33;;;5.23;;
15818;SDS011;8010;53.986;12.106;2023-05-24T03:17:13;26.63;;;5.07;;
15818;SDS011;8010;53.986;12.106;2023-05-24T03:19:39;18.43;;;4.63;;
15818;SDS011;8010;53.986;12.106;2023-05-24T03:22:04;14.33;;;4.47;;
15818;SDS011;8010;53.986;12.106;2023-05-24T03:24:30;22.97;;;5.37;;
15818;SDS011;8010;53.986;12.106;2023-05-24T03:26:57;15.77;;;4.50;;
15818;SDS011;8010;53.986;12.106;2023-05-24T03:29:23;13.57;;;4.97;;
15818;SDS011;8010;53.986;12.106;2023-05-24T03:31:48;13.03;;;5.20;;
15818;SDS011;8010;53.986;12.106;2023-05-24T03:34:14;18.57;;;4.63;;
15818;SDS011;8010;53.986;12.106;2023-05-24T03:36:40;19.70;;;5.17;;
15818;SDS011;8010;53.986;12.106;2023-05-24T03:39:06;22.67;;;5.53;;
15818;SDS011;8010;53.986;12.106;2023-05-24T03:41:31;11.70;;;4.53;;
15818;SDS011;8010;53.986;12.106;2023-05-24T03:43:57;16.63;;;4.90;;
15818;SDS011;8010;53.986;12.106;2023-05-24T03:46:23;18.13;;;5.63;;
15818;SDS011;8010;53.986;12.106;2023-05-24T03:48:49;17.30;;;4.90;;
15818;SDS011;8010;53.986;12.106;2023-05-24T03:51:14;10.37;;;4.00;;
15818;SDS011;8010;53.986;12.106;2023-05-24T03:53:40;24.07;;;5.07;;
15818;SDS011;8010;53.986;12.106;2023-05-24T03:56:05;18.63;;;4.43;;
15818;SDS011;8010;53.986;12.106;2023-05-24T03:58:31;19.77;;;5.17;;
15818;SDS011;8010;53.986;12.106;2023-05-24T04:00:57;15.10;;;4.27;;
15818;SDS011;8010;53.986;12.106;2023-05-24T04:03:22;19.10;;;4.97;;
15818;SDS011;8010;53.986;12.106;2023-05-24T04:05:49;23.30;;;5.40;;
15818;SDS011;8010;53.986;12.106;2023-05-24T04:08:15;15.93;;;4.37;;
15818;SDS011;8010;53.986;12.106;2023-05-24T04:10:41;13.20;;;4.87;;
15818;SDS011;8010;53.986;12.106;2023-05-24T04:13:07;17.90;;;5.80;;
15818;SDS011;8010;53.986;12.106;2023-05-24T04:15:33;20.17;;;5.33;;
15818;SDS011;8010;53.986;12.106;2023-05-24T04:17:58;18.03;;;5.00;;
15818;SDS011;8010;53.986;12.106;2023-05-24T04:20:24;18.13;;;4.50;;
15818;SDS011;8010;53.986;12.106;2023-05-24T04:22:51;20.90;;;4.87;;
15818;SDS011;8010;53.986;12.106;2023-05-24T04:25:17;18.83;;;5.00;;
15818;SDS011;8010;53.986;12.106;2023-05-24T04:27:43;14.83;;;4.63;;
15818;SDS011;8010;53.986;12.106;2023-05-24T04:30:09;12.33;;;3.83;;
15818;SDS011;8010;53.986;12.106;2023-05-24T04:32:35;19.60;;;4.87;;
15818;SDS011;8010;53.986;12.106;2023-05-24T04:35:01;17.40;;;4.83;;
15818;SDS011;8010;53.986;12.106;2023-05-24T04:37:28;18.53;;;4.83;;
15818;SDS011;8010;53.986;12.106;2023-05-24T04:39:55;11.53;;;4.70;;
15818;SDS011;8010;53.986;12.106;2023-05-24T04:42:21;16.23;;;4.80;;
15818;SDS011;8010;53.986;12.106;2023-05-24T04:44:47;22.80;;;4.90;;
15818;SDS011;8010;53.986;12.106;2023-05-24T04:47:12;16.10;;;4.13;;
15818;SDS011;8010;53.986;12.106;2023-05-24T04:49:38;19.93;;;5.30;;
15818;SDS011;8010;53.986;12.106;2023-05-24T04:52:04;13.23;;;4.13;;
15818;SDS011;8010;53.986;12.106;2023-05-24T04:54:30;12.97;;;4.73;;
15818;SDS011;8010;53.986;12.106;2023-05-24T04:56:56;22.90;;;5.83;;
15818;SDS011;8010;53.986;12.106;2023-05-24T04:59:22;15.20;;;5.43;;
15818;SDS011;8010;53.986;12.106;2023-05-24T05:01:47;17.57;;;4.50;;
15818;SDS011;8010;53.986;12.106;2023-05-24T05:04:13;14.50;;;4.17;;
15818;SDS011;8010;53.986;12.106;2023-05-24T05:06:39;14.70;;;4.30;;
15818;SDS011;8010;53.986;12.106;2023-05-24T05:09:07;14.90;;;4.43;;
15818;SDS011;8010;53.986;12.106;2023-05-24T05:11:34;27.10;;;5.37;;
15818;SDS011;8010;53.986;12.106;2023-05-24T05:14:00;30.20;;;5.50;;
15818;SDS011;8010;53.986;12.106;2023-05-24T05:16:26;25.17;;;5.57;;
15818;SDS011;8010;53.986;12.106;2023-05-24T05:18:52;22.40;;;5.83;;
15818;SDS011;8010;53.986;12.106;2023-05-24T05:21:17;21.23;;;4.70;;
15818;SDS011;8010;53.986;12.106;2023-05-24T05:23:43;22.57;;;5.30;;
15818;SDS011;8010;53.986;12.106;2023-05-24T05:26:09;17.80;;;5.03;;
15818;SDS011;8010;53.986;12.106;2023-05-24T05:28:35;19.50;;;4.50;;
15818;SDS011;8010;53.986;12.106;2023-05-24T05:31:01;18.10;;;4.90;;
15818;SDS011;8010;53.986;12.106;2023-05-24T05:33:27;16.97;;;5.83;;
15818;SDS011;8010;53.986;12.106;2023-05-24T05:35:52;21.33;;;5.10;;
15818;SDS011;8010;53.986;12.106;2023-05-24T05:38:18;18.47;;;4.83;;
15818;SDS011;8010;53.986;12.106;2023-05-24T05:40:43;18.33;;;4.23;;
15818;SDS011;8010;53.986;12.106;2023-05-24T05:43:09;14.37;;;4.33;;
15818;SDS011;8010;53.986;12.106;2023-05-24T05:45:35;18.60;;;4.00;;
15818;SDS011;8010;53.986;12.106;2023-05-24T05:48:00;15.30;;;4.13;;
15818;SDS011;8010;53.986;12.106;2023-05-24T05:50:26;23.33;;;4.73;;
15818;SDS011;8010;53.986;12.106;2023-05-24T05:52:51;22.57;;;4.50;;
15818;SDS011;8010;53.986;12.106;2023-05-24T05:55:17;18.43;;;4.80;;
15818;SDS011;8010;53.986;12.106;2023-05-24T05:57:42;15.10;;;4.73;;
15818;SDS011;8010;53.986;12.106;2023-05-24T06:00:08;17.77;;;4.33;;
15818;SDS011;8010;53.986;12.106;2023-05-24T06:02:34;17.63;;;4.10;;
15818;SDS011;8010;53.986;12.106;2023-05-24T06:05:00;18.57;;;5.03;;
15818;SDS011;8010;53.986;12.106;2023-05-24T06:07:25;13.93;;;4.27;;
15818;SDS011;8010;53.986;12.106;2023-05-24T06:09:51;18.20;;;3.70;;
15818;SDS011;8010;53.986;12.106;2023-05-24T06:12:16;16.33;;;4.73;;
15818;SDS011;8010;53.986;12.106;2023-05-24T06:14:42;18.17;;;4.20;;
15818;SDS011;8010;53.986;12.106;2023-05-24T06:17:08;21.40;;;4.60;;
15818;SDS011;8010;53.986;12.106;2023-05-24T06:19:33;14.73;;;3.70;;
15818;SDS011;8010;53.986;12.106;2023-05-24T06:21:59;15.40;;;3.80;;
15818;SDS011;8010;53.986;12.106;2023-05-24T06:24:25;17.07;;;3.90;;
15818;SDS011;8010;53.986;12.106;2023-05-24T06:26:52;14.13;;;3.83;;
15818;SDS011;8010;53.986;12.106;2023-05-24T06:29:18;12.93;;;3.30;;
15818;SDS011;8010;53.986;12.106;2023-05-24T06:31:45;16.13;;;4.27;;
15818;SDS011;8010;53.986;12.106;2023-05-24T06:34:12;12.27;;;3.30;;
15818;SDS011;8010;53.986;12.106;2023-05-24T06:36:40;17.30;;;3.60;;
15818;SDS011;8010;53.986;12.106;2023-05-24T06:39:07;13.57;;;3.80;;
15818;SDS011;8010;53.986;12.106;2023-05-24T06:41:34;19.27;;;4.13;;
15818;SDS011;8010;53.986;12.106;2023-05-24T06:43:59;20.17;;;4.30;;
15818;SDS011;8010;53.986;12.106;2023-05-24T06:46:25;12.83;;;3.50;;
15818;SDS011;8010;53.986;12.106;2023-05-24T06:48:50;18.90;;;3.97;;
15818;SDS011;8010;53.986;12.106;2023-05-24T06:51:16;12.50;;;3.43;;
15818;SDS011;8010;53.986;12.106;2023-05-24T06:53:42;14.77;;;3.60;;
15818;SDS011;8010;53.986;12.106;2023-05-24T06:56:07;19.70;;;3.13;;
15818;SDS011;8010;53.986;12.106;2023-05-24T06:58:34;17.33;;;4.03;;
15818;SDS011;8010;53.986;12.106;2023-05-24T07:01:00;13.77;;;3.80;;
15818;SDS011;8010;53.986;12.106;2023-05-24T07:03:26;17.63;;;3.93;;
15818;SDS011;8010;53.986;12.106;2023-05-24T07:05:52;16.23;;;3.63;;
15818;SDS011;8010;53.986;12.106;2023-05-24T07:08:17;15.93;;;3.93;;
15818;SDS011;8010;53.986;12.106;2023-05-24T07:10:43;12.00;;;4.17;;
15818;SDS011;8010;53.986;12.106;2023-05-24T07:13:09;12.53;;;3.23;;
15818;SDS011;8010;53.986;12.106;2023-05-24T07:15:37;20.97;;;3.77;;
15818;SDS011;8010;53.986;12.106;2023-05-24T07:18:05;13.30;;;2.87;;
15818;SDS011;8010;53.986;12.106;2023-05-24T07:20:31;13.87;;;3.87;;
15818;SDS011;8010;53.986;12.106;2023-05-24T07:22:57;19.50;;;4.27;;
15818;SDS011;8010;53.986;12.106;2023-05-24T07:25:22;16.63;;;3.83;;
15818;SDS011;8010;53.986;12.106;2023-05-24T07:27:48;14.93;;;3.67;;
15818;SDS011;8010;53.986;12.106;2023-05-24T07:30:14;19.07;;;4.27;;
15818;SDS011;8010;53.986;12.106;2023-05-24T07:32:40;11.60;;;3.70;;
15818;SDS011;8010;53.986;12.106;2023-05-24T07:35:06;15.97;;;3.60;;
15818;SDS011;8010;53.986;12.106;2023-05-24T07:37:32;14.83;;;3.67;;
15818;SDS011;8010;53.986;12.106;2023-05-24T07:39:58;15.13;;;3.27;;
15818;SDS011;8010;53.986;12.106;2023-05-24T07:42:23;8.10;;;2.97;;
15818;SDS011;8010;53.986;12.106;2023-05-24T07:44:49;14.27;;;3.60;;
15818;SDS011;8010;53.986;12.106;2023-05-24T07:47:15;15.73;;;2.97;;
15818;SDS011;8010;53.986;12.106;2023-05-24T07:49:40;13.57;;;3.20;;
15818;SDS011;8010;53.986;12.106;2023-05-24T07:52:06;13.93;;;3.23;;
15818;SDS011;8010;53.986;12.106;2023-05-24T07:54:32;11.93;;;3.30;;
15818;SDS011;8010;53.986;12.106;2023-05-24T07:56:58;7.87;;;2.20;;
15818;SDS011;8010;53.986;12.106;2023-05-24T07:59:23;12.07;;;2.80;;
15818;SDS011;8010;53.986;12.106;2023-05-24T08:01:49;16.20;;;3.23;;
15818;SDS011;8010;53.986;12.106;2023-05-24T08:04:14;9.53;;;2.60;;
15818;SDS011;8010;53.986;12.106;2023-05-24T08:06:40;9.77;;;2.83;;
15818;SDS011;8010;53.986;12.106;2023-05-24T08:09:06;8.97;;;2.40;;
15818;SDS011;8010;53.986;12.106;2023-05-24T08:11:33;17.07;;;2.57;;
15818;SDS011;8010;53.986;12.106;2023-05-24T08:13:58;7.77;;;2.50;;
15818;SDS011;8010;53.986;12.106;2023-05-24T08:16:24;6.37;;;2.43;;
15818;SDS011;8010;53.986;12.106;2023-05-24T08:18:49;8.13;;;2.13;;
15818;SDS011;8010;53.986;12.106;2023-05-24T08:21:15;9.17;;;2.07;;
15818;SDS011;8010;53.986;12.106;2023-05-24T08:23:41;6.57;;;2.17;;
15818;SDS011;8010;53.986;12.106;2023-05-24T08:26:07;7.43;;;2.40;;
15818;SDS011;8010;53.986;12.106;2023-05-24T08:28:33;7.47;;;2.30;;
15818;SDS011;8010;53.986;12.106;2023-05-24T08:30:59;8.17;;;1.67;;
15818;SDS011;8010;53.986;12.106;2023-05-24T08:33:24;9.50;;;2.47;;
15818;SDS011;8010;53.986;12.106;2023-05-24T08:35:50;8.67;;;2.23;;
15818;SDS011;8010;53.986;12.106;2023-05-24T08:38:16;12.03;;;2.67;;
15818;SDS011;8010;53.986;12.106;2023-05-24T08:40:42;6.50;;;1.73;;
15818;SDS011;8010;53.986;12.106;2023-05-24T08:43:08;5.33;;;2.20;;
15818;SDS011;8010;53.986;12.106;2023-05-24T08:45:36;9.97;;;2.27;;
15818;SDS011;8010;53.986;12.106;2023-05-24T08:48:06;8.63;;;2.37;;
15818;SDS011;8010;53.986;12.106;2023-05-24T08:50:33;7.23;;;1.93;;
15818;SDS011;8010;53.986;12.106;2023-05-24T08:52:59;8.10;;;2.40;;
15818;SDS011;8010;53.986;12.106;2023-05-24T08:55:28;9.43;;;2.40;;
15818;SDS011;8010;53.986;12.106;2023-05-24T08:57:55;7.63;;;2.03;;
15818;SDS011;8010;53.986;12.106;2023-05-24T09:00:21;7.63;;;2.60;;
15818;SDS011;8010;53.986;12.106;2023-05-24T09:02:47;5.83;;;2.23;;
15818;SDS011;8010;53.986;12.106;2023-05-24T09:05:13;6.27;;;2.27;;
15818;SDS011;8010;53.986;12.106;2023-05-24T09:07:41;6.27;;;1.70;;
15818;SDS011;8010;53.986;12.106;2023-05-24T09:10:08;8.03;;;2.37;;
15818;SDS011;8010;53.986;12.106;2023-05-24T09:12:38;5.30;;;1.87;;
15818;SDS011;8010;53.986;12.106;2023-05-24T09:15:08;5.13;;;1.70;;
15818;SDS011;8010;53.986;12.106;2023-05-24T09:17:34;6.50;;;1.83;;
15818;SDS011;8010;53.986;12.106;2023-05-24T09:20:00;4.00;;;1.90;;
15818;SDS011;8010;53.986;12.106;2023-05-24T09:22:27;5.90;;;1.60;;
15818;SDS011;8010;53.986;12.106;2023-05-24T09:24:59;4.30;;;1.53;;
15818;SDS011;8010;53.986;12.106;2023-05-24T09:27:25;9.33;;;2.27;;
15818;SDS011;8010;53.986;12.106;2023-05-24T09:29:52;5.47;;;1.73;;
15818;SDS011;8010;53.986;12.106;2023-05-24T09:32:20;7.17;;;2.27;;
15818;SDS011;8010;53.986;12.106;2023-05-24T09:34:48;6.17;;;2.03;;
15818;SDS011;8010;53.986;12.106;2023-05-24T09:37:16;7.47;;;2.07;;
15818;SDS011;8010;53.986;12.106;2023-05-24T09:39:43;9.03;;;2.40;;
15818;SDS011;8010;53.986;12.106;2023-05-24T09:42:14;4.73;;;1.50;;
15818;SDS011;8010;53.986;12.106;2023-05-24T09:44:41;4.93;;;2.03;;
15818;SDS011;8010;53.986;12.106;2023-05-24T09:47:08;6.70;;;2.00;;
15818;SDS011;8010;53.986;12.106;2023-05-24T09:49:37;7.90;;;2.00;;
15818;SDS011;8010;53.986;12.106;2023-05-24T09:52:02;6.37;;;1.90;;
15818;SDS011;8010;53.986;12.106;2023-05-24T09:54:30;9.50;;;2.10;;
15818;SDS011;8010;53.986;12.106;2023-05-24T09:56:58;6.73;;;1.80;;
15818;SDS011;8010;53.986;12.106;2023-05-24T09:59:30;5.53;;;2.07;;
15818;SDS011;8010;53.986;12.106;2023-05-24T10:02:07;4.50;;;1.70;;
15818;SDS011;8010;53.986;12.106;2023-05-24T10:04:34;7.90;;;1.73;;
15818;SDS011;8010;53.986;12.106;2023-05-24T10:07:00;4.00;;;2.07;;
15818;SDS011;8010;53.986;12.106;2023-05-24T10:09:27;6.07;;;1.50;;
15818;SDS011;8010;53.986;12.106;2023-05-24T10:11:57;6.77;;;1.90;;
15818;SDS011;8010;53.986;12.106;2023-05-24T10:14:33;4.73;;;1.80;;
15818;SDS011;8010;53.986;12.106;2023-05-24T10:17:04;7.53;;;1.63;;
15818;SDS011;8010;53.986;12.106;2023-05-24T10:19:34;7.13;;;1.80;;
15818;SDS011;8010;53.986;12.106;2023-05-24T10:22:00;5.70;;;1.77;;
15818;SDS011;8010;53.986;12.106;2023-05-24T10:24:43;6.57;;;2.10;;
15818;SDS011;8010;53.986;12.106;2023-05-24T10:27:13;4.90;;;1.73;;
15818;SDS011;8010;53.986;12.106;2023-05-24T10:32:18;8.30;;;2.30;;
15818;SDS011;8010;53.986;12.106;2023-05-24T10:34:47;6.47;;;2.03;;
15818;SDS011;8010;53.986;12.106;2023-05-24T10:37:13;7.30;;;2.30;;
15818;SDS011;8010;53.986;12.106;2023-05-24T10:39:40;5.77;;;1.80;;
15818;SDS011;8010;53.986;12.106;2023-05-24T10:42:06;9.07;;;2.47;;
15818;SDS011;8010;53.986;12.106;2023-05-24T10:44:32;8.57;;;2.27;;
15818;SDS011;8010;53.986;12.106;2023-05-24T10:47:07;6.53;;;1.73;;
15818;SDS011;8010;53.986;12.106;2023-05-24T10:49:37;6.13;;;2.50;;
15818;SDS011;8010;53.986;12.106;2023-05-24T10:52:12;7.33;;;1.60;;
15818;SDS011;8010;53.986;12.106;2023-05-24T10:54:37;5.30;;;2.00;;
15818;SDS011;8010;53.986;12.106;2023-05-24T10:57:03;5.07;;;1.90;;
15818;SDS011;8010;53.986;12.106;2023-05-24T11:02:04;5.20;;;1.63;;
15818;SDS011;8010;53.986;12.106;2023-05-24T11:04:40;8.07;;;1.87;;
15818;SDS011;8010;53.986;12.106;2023-05-24T11:07:10;8.80;;;2.40;;
15818;SDS011;8010;53.986;12.106;2023-05-24T11:09:38;6.70;;;2.23;;
15818;SDS011;8010;53.986;12.106;2023-05-24T11:12:16;5.77;;;1.83;;
15818;SDS011;8010;53.986;12.106;2023-05-24T11:14:48;5.33;;;2.00;;
15818;SDS011;8010;53.986;12.106;2023-05-24T11:17:15;6.47;;;2.17;;
15818;SDS011;8010;53.986;12.106;2023-05-24T11:19:46;5.43;;;1.60;;
15818;SDS011;8010;53.986;12.106;2023-05-24T11:22:16;4.07;;;1.77;;
15818;SDS011;8010;53.986;12.106;2023-05-24T11:24:44;7.60;;;2.10;;
15818;SDS011;8010;53.986;12.106;2023-05-24T11:27:11;5.87;;;1.70;;
15818;SDS011;8010;53.986;12.106;2023-05-24T11:29:41;8.57;;;2.00;;
15818;SDS011;8010;53.986;12.106;2023-05-24T11:32:08;6.27;;;1.70;;
15818;SDS011;8010;53.986;12.106;2023-05-24T11:34:39;6.43;;;2.50;;
15818;SDS011;8010;53.986;12.106;2023-05-24T11:37:05;6.83;;;2.30;;
15818;SDS011;8010;53.986;12.106;2023-05-24T11:39:31;8.67;;;1.87;;
15818;SDS011;8010;53.986;12.106;2023-05-24T11:41:59;4.80;;;1.73;;
15818;SDS011;8010;53.986;12.106;2023-05-24T11:44:28;5.47;;;2.03;;
15818;SDS011;8010;53.986;12.106;2023-05-24T11:46:56;6.40;;;2.07;;
15818;SDS011;8010;53.986;12.106;2023-05-24T11:49:23;6.80;;;2.10;;
15818;SDS011;8010;53.986;12.106;2023-05-24T11:51:49;6.53;;;2.17;;
15818;SDS011;8010;53.986;12.106;2023-05-24T11:54:17;4.23;;;1.77;;
15818;SDS011;8010;53.986;12.106;2023-05-24T11:56:43;6.67;;;2.10;;
15818;SDS011;8010;53.986;12.106;2023-05-24T11:59:15;4.77;;;1.50;;
15818;SDS011;8010;53.986;12.106;2023-05-24T12:01:41;6.70;;;1.97;;
15818;SDS011;8010;53.986;12.106;2023-05-24T12:04:07;5.07;;;1.83;;
15818;SDS011;8010;53.986;12.106;2023-05-24T12:09:07;4.67;;;1.77;;
15818;SDS011;8010;53.986;12.106;2023-05-24T12:11:37;4.23;;;1.57;;
15818;SDS011;8010;53.986;12.106;2023-05-24T12:14:04;5.70;;;1.90;;
15818;SDS011;8010;53.986;12.106;2023-05-24T12:16:31;6.07;;;1.77;;
15818;SDS011;8010;53.986;12.106;2023-05-24T12:18:57;9.00;;;2.20;;
15818;SDS011;8010;53.986;12.106;2023-05-24T12:21:23;6.20;;;2.00;;
15818;SDS011;8010;53.986;12.106;2023-05-24T12:23:49;4.53;;;1.73;;
15818;SDS011;8010;53.986;12.106;2023-05-24T12:26:16;6.43;;;1.90;;
15818;SDS011;8010;53.986;12.106;2023-05-24T12:28:46;5.40;;;1.63;;
15818;SDS011;8010;53.986;12.106;2023-05-24T12:31:16;5.13;;;1.67;;
15818;SDS011;8010;53.986;12.106;2023-05-24T12:33:43;5.53;;;1.63;;
15818;SDS011;8010;53.986;12.106;2023-05-24T12:36:08;5.73;;;2.17;;
15818;SDS011;8010;53.986;12.106;2023-05-24T12:38:34;5.53;;;2.10;;
15818;SDS011;8010;53.986;12.106;2023-05-24T12:41:00;4.33;;;2.20;;
15818;SDS011;8010;53.986;12.106;2023-05-24T12:43:25;5.33;;;1.87;;
15818;SDS011;8010;53.986;12.106;2023-05-24T12:45:51;7.13;;;2.00;;
15818;SDS011;8010;53.986;12.106;2023-05-24T12:48:17;6.23;;;2.30;;
15818;SDS011;8010;53.986;12.106;2023-05-24T12:50:42;7.50;;;1.93;;
15818;SDS011;8010;53.986;12.106;2023-05-24T12:53:08;6.43;;;2.37;;
15818;SDS011;8010;53.986;12.106;2023-05-24T12:55:33;3.87;;;1.90;;
15818;SDS011;8010;53.986;12.106;2023-05-24T12:58:00;4.60;;;1.70;;
15818;SDS011;8010;53.986;12.106;2023-05-24T13:00:27;2.50;;;1.37;;
15818;SDS011;8010;53.986;12.106;2023-05-24T13:02:56;3.57;;;1.97;;
15818;SDS011;8010;53.986;12.106;2023-05-24T13:05:26;6.97;;;1.87;;
15818;SDS011;8010;53.986;12.106;2023-05-24T13:07:53;4.67;;;1.80;;
15818;SDS011;8010;53.986;12.106;2023-05-24T13:10:20;5.20;;;1.40;;
15818;SDS011;8010;53.986;12.106;2023-05-24T13:12:47;3.83;;;1.67;;
15818;SDS011;8010;53.986;12.106;2023-05-24T13:15:13;4.00;;;1.50;;
15818;SDS011;8010;53.986;12.106;2023-05-24T13:17:39;7.53;;;1.80;;
15818;SDS011;8010;53.986;12.106;2023-05-24T13:20:06;5.73;;;2.07;;
15818;SDS011;8010;53.986;12.106;2023-05-24T13:22:35;5.63;;;2.03;;
15818;SDS011;8010;53.986;12.106;2023-05-24T13:25:01;5.33;;;1.67;;
15818;SDS011;8010;53.986;12.106;2023-05-24T13:27:28;3.77;;;1.93;;
15818;SDS011;8010;53.986;12.106;2023-05-24T13:29:53;8.20;;;2.20;;
15818;SDS011;8010;53.986;12.106;2023-05-24T13:32:19;4.07;;;1.67;;
15818;SDS011;8010;53.986;12.106;2023-05-24T13:34:45;4.40;;;1.70;;
15818;SDS011;8010;53.986;12.106;2023-05-24T13:37:11;4.27;;;1.57;;
15818;SDS011;8010;53.986;12.106;2023-05-24T13:39:37;5.07;;;1.50;;
15818;SDS011;8010;53.986;12.106;2023-05-24T13:42:03;3.83;;;1.83;;
15818;SDS011;8010;53.986;12.106;2023-05-24T13:44:29;3.67;;;1.53;;
15818;SDS011;8010;53.986;12.106;2023-05-24T13:46:56;3.87;;;1.50;;
15818;SDS011;8010;53.986;12.106;2023-05-24T13:49:22;5.40;;;1.77;;
15818;SDS011;8010;53.986;12.106;2023-05-24T13:51:48;3.17;;;1.30;;
15818;SDS011;8010;53.986;12.106;2023-05-24T13:57:35;5.83;;;1.43;;
15818;SDS011;8010;53.986;12.106;2023-05-24T14:00:00;2.23;;;1.27;;
15818;SDS011;8010;53.986;12.106;2023-05-24T14:02:27;3.50;;;1.80;;
15818;SDS011;8010;53.986;12.106;2023-05-24T14:04:53;4.57;;;1.33;;
15818;SDS011;8010;53.986;12.106;2023-05-24T14:07:19;3.87;;;1.40;;
15818;SDS011;8010;53.986;12.106;2023-05-24T14:09:45;3.67;;;1.30;;
15818;SDS011;8010;53.986;12.106;2023-05-24T14:12:10;4.77;;;1.63;;
15818;SDS011;8010;53.986;12.106;2023-05-24T14:14:37;3.80;;;1.47;;
15818;SDS011;8010;53.986;12.106;2023-05-24T14:17:03;2.00;;;1.30;;
15818;SDS011;8010;53.986;12.106;2023-05-24T14:19:29;7.00;;;1.63;;
15818;SDS011;8010;53.986;12.106;2023-05-24T14:21:54;4.50;;;1.53;;
15818;SDS011;8010;53.986;12.106;2023-05-24T14:24:20;4.10;;;1.30;;
15818;SDS011;8010;53.986;12.106;2023-05-24T14:26:46;3.70;;;1.43;;
15818;SDS011;8010;53.986;12.106;2023-05-24T14:29:11;4.83;;;1.63;;
15818;SDS011;8010;53.986;12.106;2023-05-24T14:31:37;5.97;;;1.80;;
15818;SDS011;8010;53.986;12.106;2023-05-24T14:34:09;3.10;;;1.20;;
15818;SDS011;8010;53.986;12.106;2023-05-24T14:36:35;3.93;;;1.67;;
15818;SDS011;8010;53.986;12.106;2023-05-24T14:39:03;4.10;;;1.53;;
15818;SDS011;8010;53.986;12.106;2023-05-24T14:41:30;3.73;;;1.50;;
15818;SDS011;8010;53.986;12.106;2023-05-24T14:43:55;4.97;;;1.50;;
15818;SDS011;8010;53.986;12.106;2023-05-24T14:46:21;2.80;;;1.40;;
15818;SDS011;8010;53.986;12.106;2023-05-24T14:48:47;2.93;;;1.20;;
15818;SDS011;8010;53.986;12.106;2023-05-24T14:51:12;5.43;;;1.60;;
15818;SDS011;8010;53.986;12.106;2023-05-24T14:53:38;3.77;;;1.50;;
15818;SDS011;8010;53.986;12.106;2023-05-24T14:56:03;4.50;;;1.70;;
15818;SDS011;8010;53.986;12.106;2023-05-24T15:01:53;3.60;;;1.63;;